sensor_id;sensor_type;location;lat;lon;timestamp;temperature;humidity
4050;DHT22;2039;50.894;6.888;2024-01-30T00:01:16;6.80;99.90
4050;DHT22;2039;50.894;6.888;2024-01-30T00:03:41;6.80;99.90
4050;DHT22;2039;50.894;6.888;2024-01-30T00:06:08;6.80;99.90
4050;DHT22;2039;50.894;6.888;2024-01-30T00:08:34;6.80;99.90
4050;DHT22;2039;50.894;6.888;2024-01-30T00:10:59;6.80;99.90
4050;DHT22;2039;50.894;6.888;2024-01-30T00:13:26;6.80;99.90
4050;DHT22;2039;50.894;6.888;2024-01-30T00:15:52;6.70;99.90
4050;DHT22;2039;50.894;6.888;2024-01-30T00:21:21;6.70;99.90
4050;DHT22;2039;50.894;6.888;2024-01-30T00:23:47;6.70;99.90
4050;DHT22;2039;50.894;6.888;2024-01-30T00:26:13;6.70;99.90
4050;DHT22;2039;50.894;6.888;2024-01-30T00:28:41;6.60;99.90
4050;DHT22;2039;50.894;6.888;2024-01-30T00:31:06;6.60;99.90
4050;DHT22;2039;50.894;6.888;2024-01-30T00:33:32;6.70;99.90
4050;DHT22;2039;50.894;6.888;2024-01-30T00:35:58;6.60;99.90
4050;DHT22;2039;50.894;6.888;2024-01-30T00:38:24;6.60;99.90
4050;DHT22;2039;50.894;6.888;2024-01-30T00:40:50;6.60;99.90
4050;DHT22;2039;50.894;6.888;2024-01-30T00:43:16;6.60;99.90
4050;DHT22;2039;50.894;6.888;2024-01-30T00:45:45;6.50;99.90
4050;DHT22;2039;50.894;6.888;2024-01-30T00:48:10;6.50;99.90
4050;DHT22;2039;50.894;6.888;2024-01-30T00:50:36;6.50;99.90
4050;DHT22;2039;50.894;6.888;2024-01-30T00:53:02;6.50;99.90
4050;DHT22;2039;50.894;6.888;2024-01-30T00:55:27;6.50;99.90
4050;DHT22;2039;50.894;6.888;2024-01-30T00:57:53;6.40;99.90
4050;DHT22;2039;50.894;6.888;2024-01-30T01:00:18;6.40;99.90
4050;DHT22;2039;50.894;6.888;2024-01-30T01:02:46;6.50;99.90
4050;DHT22;2039;50.894;6.888;2024-01-30T01:05:12;6.40;99.90
4050;DHT22;2039;50.894;6.888;2024-01-30T01:07:38;6.40;99.90
4050;DHT22;2039;50.894;6.888;2024-01-30T01:10:03;6.40;99.90
4050;DHT22;2039;50.894;6.888;2024-01-30T01:12:29;6.40;99.90
4050;DHT22;2039;50.894;6.888;2024-01-30T01:14:55;6.50;99.90
4050;DHT22;2039;50.894;6.888;2024-01-30T01:17:21;6.50;99.90
4050;DHT22;2039;50.894;6.888;2024-01-30T01:19:46;6.50;99.90
4050;DHT22;2039;50.894;6.888;2024-01-30T01:22:12;6.40;99.90
4050;DHT22;2039;50.894;6.888;2024-01-30T01:24:38;6.40;99.90
4050;DHT22;2039;50.894;6.888;2024-01-30T01:27:04;6.40;99.90
4050;DHT22;2039;50.894;6.888;2024-01-30T01:29:31;6.40;99.90
4050;DHT22;2039;50.894;6.888;2024-01-30T01:31:57;6.40;99.90
4050;DHT22;2039;50.894;6.888;2024-01-30T01:34:22;6.40;99.90
4050;DHT22;2039;50.894;6.888;2024-01-30T01:36:51;6.50;99.90
4050;DHT22;2039;50.894;6.888;2024-01-30T01:39:17;6.40;99.90
4050;DHT22;2039;50.894;6.888;2024-01-30T01:41:43;6.40;99.90
4050;DHT22;2039;50.894;6.888;2024-01-30T01:44:09;6.40;99.90
4050;DHT22;2039;50.894;6.888;2024-01-30T01:46:35;6.40;99.90
4050;DHT22;2039;50.894;6.888;2024-01-30T01:49:02;6.40;99.90
4050;DHT22;2039;50.894;6.888;2024-01-30T01:51:31;6.40;99.90
4050;DHT22;2039;50.894;6.888;2024-01-30T01:54:03;6.40;99.90
4050;DHT22;2039;50.894;6.888;2024-01-30T01:56:30;6.40;99.90
4050;DHT22;2039;50.894;6.888;2024-01-30T01:59:00;6.40;99.90
4050;DHT22;2039;50.894;6.888;2024-01-30T02:01:30;6.40;99.90
4050;DHT22;2039;50.894;6.888;2024-01-30T02:03:56;6.40;99.90
4050;DHT22;2039;50.894;6.888;2024-01-30T02:06:22;6.40;99.90
4050;DHT22;2039;50.894;6.888;2024-01-30T02:08:48;6.40;99.90
4050;DHT22;2039;50.894;6.888;2024-01-30T02:11:14;6.40;99.90
4050;DHT22;2039;50.894;6.888;2024-01-30T02:13:41;6.40;99.90
4050;DHT22;2039;50.894;6.888;2024-01-30T02:16:06;6.40;99.90
4050;DHT22;2039;50.894;6.888;2024-01-30T02:18:32;6.40;99.90
4050;DHT22;2039;50.894;6.888;2024-01-30T02:20:58;6.40;99.90
4050;DHT22;2039;50.894;6.888;2024-01-30T02:23:27;6.40;99.90
4050;DHT22;2039;50.894;6.888;2024-01-30T02:25:53;6.40;99.90
4050;DHT22;2039;50.894;6.888;2024-01-30T02:28:19;6.40;99.90
4050;DHT22;2039;50.894;6.888;2024-01-30T02:30:46;6.40;99.90
4050;DHT22;2039;50.894;6.888;2024-01-30T02:33:12;6.30;99.90
4050;DHT22;2039;50.894;6.888;2024-01-30T02:35:38;6.30;99.90
4050;DHT22;2039;50.894;6.888;2024-01-30T02:38:04;6.40;99.90
4050;DHT22;2039;50.894;6.888;2024-01-30T02:40:30;6.40;99.90
4050;DHT22;2039;50.894;6.888;2024-01-30T02:42:56;6.40;99.90
4050;DHT22;2039;50.894;6.888;2024-01-30T02:45:22;6.40;99.90
4050;DHT22;2039;50.894;6.888;2024-01-30T02:47:47;6.40;99.90
4050;DHT22;2039;50.894;6.888;2024-01-30T02:50:13;6.40;99.90
4050;DHT22;2039;50.894;6.888;2024-01-30T02:52:40;6.40;99.90
4050;DHT22;2039;50.894;6.888;2024-01-30T02:55:06;6.40;99.90
4050;DHT22;2039;50.894;6.888;2024-01-30T02:57:32;6.40;99.90
4050;DHT22;2039;50.894;6.888;2024-01-30T02:59:58;6.30;99.90
4050;DHT22;2039;50.894;6.888;2024-01-30T03:02:24;6.30;99.90
4050;DHT22;2039;50.894;6.888;2024-01-30T03:04:49;6.30;99.90
4050;DHT22;2039;50.894;6.888;2024-01-30T03:07:15;6.30;99.90
4050;DHT22;2039;50.894;6.888;2024-01-30T03:09:44;6.30;99.90
4050;DHT22;2039;50.894;6.888;2024-01-30T03:12:10;6.30;99.90
4050;DHT22;2039;50.894;6.888;2024-01-30T03:14:35;6.30;99.90
4050;DHT22;2039;50.894;6.888;2024-01-30T03:17:01;6.30;99.90
4050;DHT22;2039;50.894;6.888;2024-01-30T03:19:27;6.30;99.90
4050;DHT22;2039;50.894;6.888;2024-01-30T03:21:52;6.30;99.90
4050;DHT22;2039;50.894;6.888;2024-01-30T03:24:22;6.30;99.90
4050;DHT22;2039;50.894;6.888;2024-01-30T03:26:50;6.30;99.90
4050;DHT22;2039;50.894;6.888;2024-01-30T03:29:18;6.30;99.90
4050;DHT22;2039;50.894;6.888;2024-01-30T03:31:44;6.20;99.90
4050;DHT22;2039;50.894;6.888;2024-01-30T03:34:09;6.20;99.90
4050;DHT22;2039;50.894;6.888;2024-01-30T03:36:35;6.30;99.90
4050;DHT22;2039;50.894;6.888;2024-01-30T03:39:01;6.30;99.90
4050;DHT22;2039;50.894;6.888;2024-01-30T03:41:27;6.20;99.90
4050;DHT22;2039;50.894;6.888;2024-01-30T03:43:53;6.20;99.90
4050;DHT22;2039;50.894;6.888;2024-01-30T03:46:18;6.20;99.90
4050;DHT22;2039;50.894;6.888;2024-01-30T03:48:45;6.30;99.90
4050;DHT22;2039;50.894;6.888;2024-01-30T03:51:11;6.30;99.90
4050;DHT22;2039;50.894;6.888;2024-01-30T03:53:40;6.30;99.90
4050;DHT22;2039;50.894;6.888;2024-01-30T03:56:07;6.30;99.90
4050;DHT22;2039;50.894;6.888;2024-01-30T03:58:32;6.30;99.90
4050;DHT22;2039;50.894;6.888;2024-01-30T04:00:58;6.40;99.90
4050;DHT22;2039;50.894;6.888;2024-01-30T04:03:24;6.40;99.90
4050;DHT22;2039;50.894;6.888;2024-01-30T04:05:52;6.40;99.90
4050;DHT22;2039;50.894;6.888;2024-01-30T04:08:18;6.50;99.90
4050;DHT22;2039;50.894;6.888;2024-01-30T04:10:44;6.50;99.90
4050;DHT22;2039;50.894;6.888;2024-01-30T04:13:10;6.50;99.90
4050;DHT22;2039;50.894;6.888;2024-01-30T04:15:36;6.60;99.90
4050;DHT22;2039;50.894;6.888;2024-01-30T04:18:01;6.60;99.90
4050;DHT22;2039;50.894;6.888;2024-01-30T04:20:27;6.60;99.90
4050;DHT22;2039;50.894;6.888;2024-01-30T04:22:53;6.70;99.90
4050;DHT22;2039;50.894;6.888;2024-01-30T04:25:19;6.70;99.90
4050;DHT22;2039;50.894;6.888;2024-01-30T04:27:44;6.70;99.90
4050;DHT22;2039;50.894;6.888;2024-01-30T04:30:10;6.70;99.90
4050;DHT22;2039;50.894;6.888;2024-01-30T04:32:37;6.70;99.90
4050;DHT22;2039;50.894;6.888;2024-01-30T04:35:03;6.60;99.90
4050;DHT22;2039;50.894;6.888;2024-01-30T04:37:28;6.60;99.90
4050;DHT22;2039;50.894;6.888;2024-01-30T04:39:54;6.60;99.90
4050;DHT22;2039;50.894;6.888;2024-01-30T04:42:20;6.60;99.90
4050;DHT22;2039;50.894;6.888;2024-01-30T04:44:45;6.60;99.90
4050;DHT22;2039;50.894;6.888;2024-01-30T04:47:11;6.60;99.90
4050;DHT22;2039;50.894;6.888;2024-01-30T04:49:40;6.60;99.90
4050;DHT22;2039;50.894;6.888;2024-01-30T04:52:07;6.60;99.90
4050;DHT22;2039;50.894;6.888;2024-01-30T04:54:33;6.60;99.90
4050;DHT22;2039;50.894;6.888;2024-01-30T04:57:03;6.60;99.90
4050;DHT22;2039;50.894;6.888;2024-01-30T04:59:29;6.60;99.90
4050;DHT22;2039;50.894;6.888;2024-01-30T05:01:54;6.60;99.90
4050;DHT22;2039;50.894;6.888;2024-01-30T05:04:20;6.50;99.90
4050;DHT22;2039;50.894;6.888;2024-01-30T05:06:47;6.50;99.90
4050;DHT22;2039;50.894;6.888;2024-01-30T05:09:13;6.60;99.90
4050;DHT22;2039;50.894;6.888;2024-01-30T05:11:39;6.50;99.90
4050;DHT22;2039;50.894;6.888;2024-01-30T05:14:05;6.50;99.90
4050;DHT22;2039;50.894;6.888;2024-01-30T05:16:33;6.50;99.90
4050;DHT22;2039;50.894;6.888;2024-01-30T05:18:59;6.50;99.90
4050;DHT22;2039;50.894;6.888;2024-01-30T05:21:25;6.50;99.90
4050;DHT22;2039;50.894;6.888;2024-01-30T05:23:50;6.50;99.90
4050;DHT22;2039;50.894;6.888;2024-01-30T05:26:16;6.50;99.90
4050;DHT22;2039;50.894;6.888;2024-01-30T05:28:42;6.50;99.90
4050;DHT22;2039;50.894;6.888;2024-01-30T05:31:10;6.50;99.90
4050;DHT22;2039;50.894;6.888;2024-01-30T05:33:35;6.60;99.90
4050;DHT22;2039;50.894;6.888;2024-01-30T05:36:01;6.60;99.90
4050;DHT22;2039;50.894;6.888;2024-01-30T05:38:27;6.60;99.90
4050;DHT22;2039;50.894;6.888;2024-01-30T05:40:52;6.60;99.90
4050;DHT22;2039;50.894;6.888;2024-01-30T05:43:18;6.60;99.90
4050;DHT22;2039;50.894;6.888;2024-01-30T05:45:44;6.60;99.90
4050;DHT22;2039;50.894;6.888;2024-01-30T05:48:09;6.60;99.90
4050;DHT22;2039;50.894;6.888;2024-01-30T05:50:35;6.60;99.90
4050;DHT22;2039;50.894;6.888;2024-01-30T05:53:02;6.60;99.90
4050;DHT22;2039;50.894;6.888;2024-01-30T05:55:28;6.60;99.90
4050;DHT22;2039;50.894;6.888;2024-01-30T05:57:53;6.60;99.90
4050;DHT22;2039;50.894;6.888;2024-01-30T06:00:19;6.60;99.90
4050;DHT22;2039;50.894;6.888;2024-01-30T06:02:45;6.60;99.90
4050;DHT22;2039;50.894;6.888;2024-01-30T06:05:10;6.60;99.90
4050;DHT22;2039;50.894;6.888;2024-01-30T06:07:36;6.60;99.90
4050;DHT22;2039;50.894;6.888;2024-01-30T06:10:02;6.60;99.90
4050;DHT22;2039;50.894;6.888;2024-01-30T06:12:28;6.60;99.90
4050;DHT22;2039;50.894;6.888;2024-01-30T06:14:54;6.60;99.90
4050;DHT22;2039;50.894;6.888;2024-01-30T06:17:22;6.50;99.90
4050;DHT22;2039;50.894;6.888;2024-01-30T06:19:48;6.60;99.90
4050;DHT22;2039;50.894;6.888;2024-01-30T06:22:13;6.60;99.90
4050;DHT22;2039;50.894;6.888;2024-01-30T06:24:39;6.50;99.90
4050;DHT22;2039;50.894;6.888;2024-01-30T06:27:05;6.50;99.90
4050;DHT22;2039;50.894;6.888;2024-01-30T06:29:31;6.50;99.90
4050;DHT22;2039;50.894;6.888;2024-01-30T06:31:56;6.50;99.90
4050;DHT22;2039;50.894;6.888;2024-01-30T06:34:22;6.50;99.90
4050;DHT22;2039;50.894;6.888;2024-01-30T06:36:48;6.50;99.90
4050;DHT22;2039;50.894;6.888;2024-01-30T06:39:14;6.50;99.90
4050;DHT22;2039;50.894;6.888;2024-01-30T06:41:39;6.50;99.90
4050;DHT22;2039;50.894;6.888;2024-01-30T06:44:05;6.50;99.90
4050;DHT22;2039;50.894;6.888;2024-01-30T06:46:32;6.50;99.90
4050;DHT22;2039;50.894;6.888;2024-01-30T06:48:58;6.50;99.90
4050;DHT22;2039;50.894;6.888;2024-01-30T06:51:23;6.50;99.90
4050;DHT22;2039;50.894;6.888;2024-01-30T06:53:49;6.50;99.90
4050;DHT22;2039;50.894;6.888;2024-01-30T06:56:15;6.60;99.90
4050;DHT22;2039;50.894;6.888;2024-01-30T06:58:42;6.60;99.90
4050;DHT22;2039;50.894;6.888;2024-01-30T07:01:07;6.60;99.90
4050;DHT22;2039;50.894;6.888;2024-01-30T07:03:33;6.60;99.90
4050;DHT22;2039;50.894;6.888;2024-01-30T07:05:59;6.60;99.90
4050;DHT22;2039;50.894;6.888;2024-01-30T07:08:24;6.60;99.90
4050;DHT22;2039;50.894;6.888;2024-01-30T07:10:50;6.60;99.90
4050;DHT22;2039;50.894;6.888;2024-01-30T07:13:16;6.60;99.90
4050;DHT22;2039;50.894;6.888;2024-01-30T07:15:42;6.60;99.90
4050;DHT22;2039;50.894;6.888;2024-01-30T07:18:08;6.60;99.90
4050;DHT22;2039;50.894;6.888;2024-01-30T07:20:35;6.60;99.90
4050;DHT22;2039;50.894;6.888;2024-01-30T07:23:01;6.60;99.90
4050;DHT22;2039;50.894;6.888;2024-01-30T07:25:27;6.60;99.90
4050;DHT22;2039;50.894;6.888;2024-01-30T07:27:55;6.60;99.90
4050;DHT22;2039;50.894;6.888;2024-01-30T07:30:21;6.60;99.90
4050;DHT22;2039;50.894;6.888;2024-01-30T07:32:46;6.60;99.90
4050;DHT22;2039;50.894;6.888;2024-01-30T07:35:13;6.70;99.90
4050;DHT22;2039;50.894;6.888;2024-01-30T07:37:39;6.70;99.90
4050;DHT22;2039;50.894;6.888;2024-01-30T07:40:05;6.70;99.90
4050;DHT22;2039;50.894;6.888;2024-01-30T07:42:32;6.70;99.90
4050;DHT22;2039;50.894;6.888;2024-01-30T07:44:58;6.70;99.90
4050;DHT22;2039;50.894;6.888;2024-01-30T07:47:23;6.80;99.90
4050;DHT22;2039;50.894;6.888;2024-01-30T07:49:49;6.80;99.90
4050;DHT22;2039;50.894;6.888;2024-01-30T07:52:15;6.80;99.90
4050;DHT22;2039;50.894;6.888;2024-01-30T07:54:50;6.80;99.90
4050;DHT22;2039;50.894;6.888;2024-01-30T07:57:16;6.80;99.90
4050;DHT22;2039;50.894;6.888;2024-01-30T07:59:45;6.80;99.90
4050;DHT22;2039;50.894;6.888;2024-01-30T08:02:14;6.80;99.90
4050;DHT22;2039;50.894;6.888;2024-01-30T08:04:39;6.80;99.90
4050;DHT22;2039;50.894;6.888;2024-01-30T08:07:05;6.90;99.90
4050;DHT22;2039;50.894;6.888;2024-01-30T08:09:31;6.90;99.90
4050;DHT22;2039;50.894;6.888;2024-01-30T08:11:57;6.90;99.90
4050;DHT22;2039;50.894;6.888;2024-01-30T08:14:22;6.90;99.90
4050;DHT22;2039;50.894;6.888;2024-01-30T08:16:48;6.90;99.90
4050;DHT22;2039;50.894;6.888;2024-01-30T08:19:17;7.00;99.90
4050;DHT22;2039;50.894;6.888;2024-01-30T08:21:42;7.00;99.90
4050;DHT22;2039;50.894;6.888;2024-01-30T08:24:08;7.00;99.90
4050;DHT22;2039;50.894;6.888;2024-01-30T08:26:34;7.00;99.90
4050;DHT22;2039;50.894;6.888;2024-01-30T08:29:01;7.10;99.90
4050;DHT22;2039;50.894;6.888;2024-01-30T08:31:27;7.00;99.90
4050;DHT22;2039;50.894;6.888;2024-01-30T08:33:52;7.10;99.90
4050;DHT22;2039;50.894;6.888;2024-01-30T08:36:18;7.10;99.90
4050;DHT22;2039;50.894;6.888;2024-01-30T08:38:44;7.20;99.90
4050;DHT22;2039;50.894;6.888;2024-01-30T08:41:10;7.20;99.90
4050;DHT22;2039;50.894;6.888;2024-01-30T08:43:35;7.20;99.90
4050;DHT22;2039;50.894;6.888;2024-01-30T08:46:02;7.20;99.90
4050;DHT22;2039;50.894;6.888;2024-01-30T08:48:27;7.30;99.90
4050;DHT22;2039;50.894;6.888;2024-01-30T08:50:53;7.30;99.90
4050;DHT22;2039;50.894;6.888;2024-01-30T08:53:19;7.30;99.90
4050;DHT22;2039;50.894;6.888;2024-01-30T08:55:45;7.30;99.90
4050;DHT22;2039;50.894;6.888;2024-01-30T08:58:10;7.40;99.90
4050;DHT22;2039;50.894;6.888;2024-01-30T09:00:36;7.40;99.90
4050;DHT22;2039;50.894;6.888;2024-01-30T09:03:03;7.40;99.90
4050;DHT22;2039;50.894;6.888;2024-01-30T09:05:28;7.50;99.90
4050;DHT22;2039;50.894;6.888;2024-01-30T09:07:54;7.50;99.90
4050;DHT22;2039;50.894;6.888;2024-01-30T09:10:20;7.60;99.90
4050;DHT22;2039;50.894;6.888;2024-01-30T09:12:46;7.60;99.90
4050;DHT22;2039;50.894;6.888;2024-01-30T09:15:12;7.70;99.90
4050;DHT22;2039;50.894;6.888;2024-01-30T09:17:37;7.70;99.90
4050;DHT22;2039;50.894;6.888;2024-01-30T09:20:04;7.80;99.90
4050;DHT22;2039;50.894;6.888;2024-01-30T09:22:30;7.90;99.90
4050;DHT22;2039;50.894;6.888;2024-01-30T09:24:57;8.00;99.90
4050;DHT22;2039;50.894;6.888;2024-01-30T09:27:22;8.10;99.90
4050;DHT22;2039;50.894;6.888;2024-01-30T09:29:48;8.20;99.90
4050;DHT22;2039;50.894;6.888;2024-01-30T09:32:14;8.30;99.90
4050;DHT22;2039;50.894;6.888;2024-01-30T09:34:39;8.40;99.90
4050;DHT22;2039;50.894;6.888;2024-01-30T09:37:05;8.40;99.90
4050;DHT22;2039;50.894;6.888;2024-01-30T09:39:30;8.50;99.90
4050;DHT22;2039;50.894;6.888;2024-01-30T09:44:29;8.70;99.90
4050;DHT22;2039;50.894;6.888;2024-01-30T09:46:56;8.70;99.90
4050;DHT22;2039;50.894;6.888;2024-01-30T09:49:25;8.80;99.90
4050;DHT22;2039;50.894;6.888;2024-01-30T09:51:52;8.80;99.90
4050;DHT22;2039;50.894;6.888;2024-01-30T09:54:19;8.80;99.90
4050;DHT22;2039;50.894;6.888;2024-01-30T09:56:45;8.80;99.90
4050;DHT22;2039;50.894;6.888;2024-01-30T09:59:13;8.90;99.90
4050;DHT22;2039;50.894;6.888;2024-01-30T10:01:39;8.90;99.90
4050;DHT22;2039;50.894;6.888;2024-01-30T10:04:06;8.90;99.90
4050;DHT22;2039;50.894;6.888;2024-01-30T10:06:32;9.00;99.90
4050;DHT22;2039;50.894;6.888;2024-01-30T10:08:58;9.00;99.90
4050;DHT22;2039;50.894;6.888;2024-01-30T10:11:23;9.10;99.90
4050;DHT22;2039;50.894;6.888;2024-01-30T10:13:49;9.20;99.90
4050;DHT22;2039;50.894;6.888;2024-01-30T10:16:15;9.20;99.90
4050;DHT22;2039;50.894;6.888;2024-01-30T10:18:42;9.20;99.90
4050;DHT22;2039;50.894;6.888;2024-01-30T10:21:08;9.30;99.90
4050;DHT22;2039;50.894;6.888;2024-01-30T10:23:34;9.30;99.90
4050;DHT22;2039;50.894;6.888;2024-01-30T10:26:00;9.30;99.90
4050;DHT22;2039;50.894;6.888;2024-01-30T10:28:30;9.30;99.90
4050;DHT22;2039;50.894;6.888;2024-01-30T10:31:02;9.30;99.90
4050;DHT22;2039;50.894;6.888;2024-01-30T10:33:31;9.40;99.90
4050;DHT22;2039;50.894;6.888;2024-01-30T10:36:01;9.40;99.90
4050;DHT22;2039;50.894;6.888;2024-01-30T10:38:29;9.40;99.90
4050;DHT22;2039;50.894;6.888;2024-01-30T10:40:59;9.50;99.90
4050;DHT22;2039;50.894;6.888;2024-01-30T10:43:41;9.50;99.90
4050;DHT22;2039;50.894;6.888;2024-01-30T10:46:11;9.60;99.90
4050;DHT22;2039;50.894;6.888;2024-01-30T10:48:43;9.60;99.90
4050;DHT22;2039;50.894;6.888;2024-01-30T10:51:11;9.70;99.90
4050;DHT22;2039;50.894;6.888;2024-01-30T10:53:38;9.80;99.90
4050;DHT22;2039;50.894;6.888;2024-01-30T10:56:05;9.80;99.90
4050;DHT22;2039;50.894;6.888;2024-01-30T10:58:31;9.80;99.90
4050;DHT22;2039;50.894;6.888;2024-01-30T11:00:57;9.90;99.90
4050;DHT22;2039;50.894;6.888;2024-01-30T11:03:24;9.90;99.90
4050;DHT22;2039;50.894;6.888;2024-01-30T11:05:50;10.00;99.90
4050;DHT22;2039;50.894;6.888;2024-01-30T11:08:25;10.00;99.90
4050;DHT22;2039;50.894;6.888;2024-01-30T11:10:58;10.10;99.90
4050;DHT22;2039;50.894;6.888;2024-01-30T11:13:31;10.20;99.90
4050;DHT22;2039;50.894;6.888;2024-01-30T11:16:03;10.20;99.90
4050;DHT22;2039;50.894;6.888;2024-01-30T11:18:30;10.20;99.90
4050;DHT22;2039;50.894;6.888;2024-01-30T11:20:57;10.30;99.90
4050;DHT22;2039;50.894;6.888;2024-01-30T11:23:23;10.40;99.90
4050;DHT22;2039;50.894;6.888;2024-01-30T11:25:49;10.50;99.90
4050;DHT22;2039;50.894;6.888;2024-01-30T11:28:18;10.60;99.90
4050;DHT22;2039;50.894;6.888;2024-01-30T11:30:44;10.60;99.90
4050;DHT22;2039;50.894;6.888;2024-01-30T11:33:12;10.80;99.90
4050;DHT22;2039;50.894;6.888;2024-01-30T11:35:38;10.80;99.90
4050;DHT22;2039;50.894;6.888;2024-01-30T11:38:06;10.90;99.90
4050;DHT22;2039;50.894;6.888;2024-01-30T11:40:33;11.00;99.90
4050;DHT22;2039;50.894;6.888;2024-01-30T11:43:00;11.00;99.90
4050;DHT22;2039;50.894;6.888;2024-01-30T11:45:27;11.10;99.90
4050;DHT22;2039;50.894;6.888;2024-01-30T11:47:53;11.10;99.90
4050;DHT22;2039;50.894;6.888;2024-01-30T11:50:20;11.20;99.90
4050;DHT22;2039;50.894;6.888;2024-01-30T11:52:46;11.20;99.90
4050;DHT22;2039;50.894;6.888;2024-01-30T11:55:12;11.20;99.90
4050;DHT22;2039;50.894;6.888;2024-01-30T11:57:38;11.10;99.90
4050;DHT22;2039;50.894;6.888;2024-01-30T12:00:05;11.20;99.90
4050;DHT22;2039;50.894;6.888;2024-01-30T12:02:39;11.20;99.90
4050;DHT22;2039;50.894;6.888;2024-01-30T12:05:08;11.20;99.90
4050;DHT22;2039;50.894;6.888;2024-01-30T12:07:34;11.30;99.90
4050;DHT22;2039;50.894;6.888;2024-01-30T12:10:00;11.30;99.90
4050;DHT22;2039;50.894;6.888;2024-01-30T12:12:27;11.30;99.90
4050;DHT22;2039;50.894;6.888;2024-01-30T12:14:53;11.30;99.90
4050;DHT22;2039;50.894;6.888;2024-01-30T12:17:28;11.30;99.90
4050;DHT22;2039;50.894;6.888;2024-01-30T12:20:05;11.30;99.90
4050;DHT22;2039;50.894;6.888;2024-01-30T12:22:33;11.30;99.90
4050;DHT22;2039;50.894;6.888;2024-01-30T12:25:01;11.40;99.90
4050;DHT22;2039;50.894;6.888;2024-01-30T12:27:27;11.40;99.90
4050;DHT22;2039;50.894;6.888;2024-01-30T12:29:56;11.50;99.90
4050;DHT22;2039;50.894;6.888;2024-01-30T12:32:23;11.50;99.90
4050;DHT22;2039;50.894;6.888;2024-01-30T12:34:49;11.50;99.90
4050;DHT22;2039;50.894;6.888;2024-01-30T12:37:15;11.50;99.90
4050;DHT22;2039;50.894;6.888;2024-01-30T12:39:48;11.50;99.90
4050;DHT22;2039;50.894;6.888;2024-01-30T12:42:14;11.60;99.90
4050;DHT22;2039;50.894;6.888;2024-01-30T12:44:40;11.60;99.90
4050;DHT22;2039;50.894;6.888;2024-01-30T12:47:08;11.70;99.90
4050;DHT22;2039;50.894;6.888;2024-01-30T12:49:35;11.70;99.90
4050;DHT22;2039;50.894;6.888;2024-01-30T12:52:00;11.80;99.90
4050;DHT22;2039;50.894;6.888;2024-01-30T12:54:26;11.90;99.90
4050;DHT22;2039;50.894;6.888;2024-01-30T12:56:52;12.00;99.90
4050;DHT22;2039;50.894;6.888;2024-01-30T12:59:18;12.00;99.90
4050;DHT22;2039;50.894;6.888;2024-01-30T13:01:43;11.90;99.90
4050;DHT22;2039;50.894;6.888;2024-01-30T13:04:09;11.90;99.90
4050;DHT22;2039;50.894;6.888;2024-01-30T13:06:35;11.90;94.80
4050;DHT22;2039;50.894;6.888;2024-01-30T13:09:00;11.90;90.00
4050;DHT22;2039;50.894;6.888;2024-01-30T13:11:26;12.00;93.10
4050;DHT22;2039;50.894;6.888;2024-01-30T13:13:52;12.10;90.30
4050;DHT22;2039;50.894;6.888;2024-01-30T13:16:17;12.10;83.40
4050;DHT22;2039;50.894;6.888;2024-01-30T13:18:44;12.10;78.20
4050;DHT22;2039;50.894;6.888;2024-01-30T13:21:09;12.20;74.40
4050;DHT22;2039;50.894;6.888;2024-01-30T13:23:35;12.20;64.80
4050;DHT22;2039;50.894;6.888;2024-01-30T13:26:01;12.20;65.60
4050;DHT22;2039;50.894;6.888;2024-01-30T13:28:27;12.20;68.30
4050;DHT22;2039;50.894;6.888;2024-01-30T13:30:53;12.20;80.70
4050;DHT22;2039;50.894;6.888;2024-01-30T13:33:19;12.20;71.50
4050;DHT22;2039;50.894;6.888;2024-01-30T13:35:45;12.20;64.50
4050;DHT22;2039;50.894;6.888;2024-01-30T13:38:10;12.10;78.90
4050;DHT22;2039;50.894;6.888;2024-01-30T13:40:36;12.10;79.40
4050;DHT22;2039;50.894;6.888;2024-01-30T13:43:02;12.20;83.40
4050;DHT22;2039;50.894;6.888;2024-01-30T13:45:28;12.20;87.80
4050;DHT22;2039;50.894;6.888;2024-01-30T13:47:54;12.20;91.50
4050;DHT22;2039;50.894;6.888;2024-01-30T13:50:19;12.20;93.80
4050;DHT22;2039;50.894;6.888;2024-01-30T13:52:45;12.30;96.10
4050;DHT22;2039;50.894;6.888;2024-01-30T13:55:11;12.30;98.90
4050;DHT22;2039;50.894;6.888;2024-01-30T13:57:37;12.30;99.90
4050;DHT22;2039;50.894;6.888;2024-01-30T14:00:04;12.30;99.90
4050;DHT22;2039;50.894;6.888;2024-01-30T14:02:33;12.20;99.90
4050;DHT22;2039;50.894;6.888;2024-01-30T14:04:58;12.20;99.60
4050;DHT22;2039;50.894;6.888;2024-01-30T14:07:24;12.10;99.10
4050;DHT22;2039;50.894;6.888;2024-01-30T14:09:50;12.10;99.90
4050;DHT22;2039;50.894;6.888;2024-01-30T14:12:15;12.10;99.90
4050;DHT22;2039;50.894;6.888;2024-01-30T14:14:41;12.20;99.90
4050;DHT22;2039;50.894;6.888;2024-01-30T14:17:07;12.30;99.90
4050;DHT22;2039;50.894;6.888;2024-01-30T14:19:36;12.30;99.90
4050;DHT22;2039;50.894;6.888;2024-01-30T14:22:02;12.30;99.90
4050;DHT22;2039;50.894;6.888;2024-01-30T14:24:27;12.30;99.90
4050;DHT22;2039;50.894;6.888;2024-01-30T14:26:53;12.30;99.90
4050;DHT22;2039;50.894;6.888;2024-01-30T14:29:19;12.30;99.90
4050;DHT22;2039;50.894;6.888;2024-01-30T14:31:44;12.30;99.90
4050;DHT22;2039;50.894;6.888;2024-01-30T14:34:10;12.20;99.90
4050;DHT22;2039;50.894;6.888;2024-01-30T14:36:38;12.20;99.90
4050;DHT22;2039;50.894;6.888;2024-01-30T14:39:04;12.20;99.90
4050;DHT22;2039;50.894;6.888;2024-01-30T14:41:32;12.20;99.90
4050;DHT22;2039;50.894;6.888;2024-01-30T14:44:00;12.10;99.90
4050;DHT22;2039;50.894;6.888;2024-01-30T14:46:26;12.10;99.90
4050;DHT22;2039;50.894;6.888;2024-01-30T14:48:52;12.10;99.90
4050;DHT22;2039;50.894;6.888;2024-01-30T14:51:18;12.10;99.90
4050;DHT22;2039;50.894;6.888;2024-01-30T14:53:44;12.10;99.90
4050;DHT22;2039;50.894;6.888;2024-01-30T14:56:10;12.10;99.90
4050;DHT22;2039;50.894;6.888;2024-01-30T14:58:36;12.10;99.90
4050;DHT22;2039;50.894;6.888;2024-01-30T15:01:02;12.10;99.90
4050;DHT22;2039;50.894;6.888;2024-01-30T15:03:28;12.10;99.90
4050;DHT22;2039;50.894;6.888;2024-01-30T15:05:54;12.10;99.90
4050;DHT22;2039;50.894;6.888;2024-01-30T15:08:21;12.00;99.90
4050;DHT22;2039;50.894;6.888;2024-01-30T15:10:47;12.10;99.90
4050;DHT22;2039;50.894;6.888;2024-01-30T15:13:13;12.00;99.90
4050;DHT22;2039;50.894;6.888;2024-01-30T15:15:38;12.00;99.90
4050;DHT22;2039;50.894;6.888;2024-01-30T15:18:04;12.10;99.90
4050;DHT22;2039;50.894;6.888;2024-01-30T15:20:30;12.10;99.90
4050;DHT22;2039;50.894;6.888;2024-01-30T15:22:57;12.10;99.90
4050;DHT22;2039;50.894;6.888;2024-01-30T15:25:22;12.10;99.80
4050;DHT22;2039;50.894;6.888;2024-01-30T15:27:48;12.20;99.00
4050;DHT22;2039;50.894;6.888;2024-01-30T15:30:14;12.20;97.90
4050;DHT22;2039;50.894;6.888;2024-01-30T15:32:40;12.20;98.20
4050;DHT22;2039;50.894;6.888;2024-01-30T15:35:06;12.10;99.90
4050;DHT22;2039;50.894;6.888;2024-01-30T15:37:32;12.10;99.90
4050;DHT22;2039;50.894;6.888;2024-01-30T15:39:58;12.10;99.90
4050;DHT22;2039;50.894;6.888;2024-01-30T15:42:24;12.00;99.90
4050;DHT22;2039;50.894;6.888;2024-01-30T15:44:49;12.00;99.90
4050;DHT22;2039;50.894;6.888;2024-01-30T15:47:15;12.00;99.90
4050;DHT22;2039;50.894;6.888;2024-01-30T15:49:41;12.00;99.90
4050;DHT22;2039;50.894;6.888;2024-01-30T15:52:06;12.00;99.90
4050;DHT22;2039;50.894;6.888;2024-01-30T15:54:38;12.00;99.90
4050;DHT22;2039;50.894;6.888;2024-01-30T15:57:03;12.00;99.90
4050;DHT22;2039;50.894;6.888;2024-01-30T15:59:29;12.00;99.90
4050;DHT22;2039;50.894;6.888;2024-01-30T16:01:55;12.00;99.90
4050;DHT22;2039;50.894;6.888;2024-01-30T16:04:21;11.80;99.90
4050;DHT22;2039;50.894;6.888;2024-01-30T16:06:49;11.70;99.90
4050;DHT22;2039;50.894;6.888;2024-01-30T16:09:14;11.70;99.90
4050;DHT22;2039;50.894;6.888;2024-01-30T16:11:40;11.60;99.90